Terminal Aerodrome Forecast
Issued by NWS

Home | Current Version | Previous Version | Text Only | Print | Product List | Glossary On
Versions: 1 2 3 4 5 6 7 8 9 10 11 12 13 14 15 16 17 18 19
000
FTUS41 KCAR 262332
TAFHUL
TAF
KHUL 262332Z 2700/2724 01006KT P6SM BKN035
     FM270600 10006KT P6SM BKN015
     FM271000 13006KT P6SM OVC008
     FM271200 14007KT 4SM -SHRA BR OVC006
     FM272000 17007KT P6SM OVC020=

USA.gov is the U.S. government's official web portal to all federal, state and local government web resources and services.